Time;durP1;ratioP1;P1;durP2;ratioP2;P2;SDS_P1;SDS_P2;PMS_P1;PMS_P2;Temp;Humidity;BMP_temperature;BMP_pressure;BME280_temperature;BME280_humidity;BME280_pressure;Samples;Min_cycle;Max_cycle;Signal;HPM_P1;HPM_P2
2022/07/17 00:00:16;;;;;;;7.80;4.95;;;;;;;10.65;84.30;102591.56;5137089;27;20023;-43
2022/07/17 00:02:41;;;;;;;9.70;4.78;;;;;;;10.61;85.21;102594.78;5136585;27;20019;-42
2022/07/17 00:05:07;;;;;;;14.88;5.70;;;;;;;10.57;85.69;102597.97;5137318;27;20043;-42
2022/07/17 00:07:32;;;;;;;11.65;4.57;;;;;;;10.51;85.62;102588.22;5137409;27;20091;-44
2022/07/17 00:09:57;;;;;;;14.93;5.63;;;;;;;10.55;85.74;102587.59;5136172;27;20043;-45
2022/07/17 00:12:23;;;;;;;12.13;5.28;;;;;;;10.53;85.83;102582.34;5136980;27;20042;-42
2022/07/17 00:14:48;;;;;;;15.45;5.50;;;;;;;10.53;85.92;102597.81;5137004;27;20035;-42
2022/07/17 00:17:14;;;;;;;15.27;5.85;;;;;;;10.57;85.85;102597.97;5136369;27;20106;-42
2022/07/17 00:19:39;;;;;;;16.23;6.07;;;;;;;10.60;86.02;102591.31;5137016;27;20023;-43
2022/07/17 00:22:04;;;;;;;18.50;6.15;;;;;;;10.64;85.83;102597.50;5136582;27;20028;-44
2022/07/17 00:24:30;;;;;;;15.65;6.15;;;;;;;10.49;86.09;102595.84;5136500;27;20431;-44
2022/07/17 00:26:55;;;;;;;10.10;5.00;;;;;;;10.46;86.12;102587.06;5136870;27;20026;-42
2022/07/17 00:29:21;;;;;;;11.57;4.95;;;;;;;10.46;86.13;102587.94;5136275;27;20030;-42
2022/07/17 00:31:46;;;;;;;11.95;5.50;;;;;;;10.33;86.32;102590.56;5136527;27;20041;-42
2022/07/17 00:34:12;;;;;;;10.52;5.93;;;;;;;10.29;86.63;102588.59;5136755;27;20085;-45
2022/07/17 00:36:37;;;;;;;13.32;5.95;;;;;;;10.26;87.17;102585.84;5136257;27;20363;-45
2022/07/17 00:39:03;;;;;;;20.35;6.18;;;;;;;10.27;87.36;102592.78;5136453;27;20031;-43
2022/07/17 00:41:28;;;;;;;11.80;5.72;;;;;;;10.32;87.37;102589.66;5136618;27;20027;-42
2022/07/17 00:43:54;;;;;;;13.82;5.85;;;;;;;10.30;86.48;102593.88;5135658;27;20031;-46
2022/07/17 00:46:20;;;;;;;13.43;5.82;;;;;;;10.25;86.64;102595.28;5136261;27;20023;-45
2022/07/17 00:48:45;;;;;;;12.05;5.57;;;;;;;10.14;87.12;102592.03;5136636;27;20023;-44
2022/07/17 00:51:11;;;;;;;12.18;5.53;;;;;;;10.05;87.14;102599.22;5135564;27;20393;-42
2022/07/17 00:53:36;;;;;;;15.73;5.65;;;;;;;9.91;87.42;102598.41;5136630;27;20422;-42
2022/07/17 00:56:04;;;;;;;12.60;5.13;;;;;;;9.79;87.72;102603.69;5136342;27;20027;-42
2022/07/17 00:58:30;;;;;;;;;;;;;;;10.01;84.07;102605.88;5135296;27;20531;-42
2022/07/17 01:00:55;;;;;;;12.88;5.57;;;;;;;9.72;87.39;102598.94;5136406;27;19915;-43
2022/07/17 01:03:23;;;;;;;12.27;5.68;;;;;;;9.65;88.51;102599.41;5136245;27;20055;-46
2022/07/17 01:05:48;;;;;;;14.15;6.07;;;;;;;9.61;88.60;102593.16;5135444;27;20027;-43
2022/07/17 01:08:14;;;;;;;11.82;5.82;;;;;;;9.47;88.43;102594.00;5135901;27;20490;-44
2022/07/17 01:10:40;;;;;;;10.32;6.25;;;;;;;9.37;88.59;102587.38;5136045;27;20055;-42
2022/07/17 01:13:06;;;;;;;12.48;5.80;;;;;;;9.46;89.08;102587.94;5135055;27;20019;-42
2022/07/17 01:15:35;;;;;;;14.77;6.63;;;;;;;9.38;89.61;102589.16;5135916;27;20042;-46
2022/07/17 01:18:04;;;;;;;9.45;5.53;;;;;;;9.36;89.36;102590.72;5136248;27;20114;-44
2022/07/17 01:20:30;;;;;;;11.57;6.45;;;;;;;9.27;89.23;102579.88;5135224;27;20434;-42
2022/07/17 01:22:55;;;;;;;14.55;7.22;;;;;;;9.26;89.77;102578.09;5135661;27;20027;-43
2022/07/17 01:25:22;;;;;;;11.10;6.25;;;;;;;9.18;89.44;102581.09;5135451;27;20454;-42
2022/07/17 01:27:48;;;;;;;13.07;7.13;;;;;;;9.12;89.59;102584.97;5135130;27;20023;-44
2022/07/17 01:30:13;;;;;;;12.80;6.13;;;;;;;9.05;89.32;102579.41;5135615;27;20031;-43
2022/07/17 01:32:41;;;;;;;12.02;6.72;;;;;;;9.00;90.00;102579.91;5135546;27;20015;-41
2022/07/17 01:35:08;;;;;;;13.85;7.10;;;;;;;9.04;89.97;102576.75;5134921;27;20034;-44
2022/07/17 01:37:34;;;;;;;13.85;7.40;;;;;;;9.05;89.91;102574.28;5135615;27;20027;-42
2022/07/17 01:39:59;;;;;;;12.80;6.82;;;;;;;9.11;90.10;102572.88;5134787;27;20102;-42
2022/07/17 01:42:26;;;;;;;19.27;7.72;;;;;;;9.12;90.54;102570.41;5135288;27;20412;-42
2022/07/17 01:44:53;;;;;;;13.73;7.15;;;;;;;9.08;90.11;102571.00;5135550;27;20102;-43
2022/07/17 01:47:19;;;;;;;15.02;7.72;;;;;;;9.08;90.29;102573.56;5134604;27;20031;-42
2022/07/17 01:49:46;;;;;;;18.05;7.82;;;;;;;9.01;90.79;102576.53;5135326;27;20072;-42
2022/07/17 01:52:11;;;;;;;20.63;8.63;;;;;;;9.03;91.01;102585.25;5135089;27;20023;-44
2022/07/17 01:54:37;;;;;;;17.63;8.02;;;;;;;8.98;91.86;102589.22;5134427;27;20279;-43
2022/07/17 01:57:02;;;;;;;17.75;8.70;;;;;;;9.01;92.76;102585.16;5134911;27;20034;-42
2022/07/17 01:59:27;;;;;;;16.17;7.72;;;;;;;8.93;92.03;102588.03;5135318;27;20027;-43
2022/07/17 02:01:53;;;;;;;13.95;7.32;;;;;;;9.01;91.68;102584.25;5134303;27;20073;-45
2022/07/17 02:04:18;;;;;;;15.10;8.05;;;;;;;9.14;92.40;102584.25;5134877;27;20050;-42
2022/07/17 02:06:43;;;;;;;18.13;8.15;;;;;;;9.12;91.88;102588.41;5135133;27;20027;-41
2022/07/17 02:09:08;;;;;;;17.30;7.85;;;;;;;9.11;91.42;102594.34;5132842;27;20054;-43
2022/07/17 02:11:34;;;;;;;14.82;8.02;;;;;;;9.07;91.80;102587.22;5134739;27;20035;-42
2022/07/17 02:13:59;;;;;;;16.70;7.75;;;;;;;9.12;91.59;102585.84;5134873;27;20033;-42
2022/07/17 02:16:25;;;;;;;16.58;8.55;;;;;;;9.13;91.57;102589.28;5133846;27;20027;-44
2022/07/17 02:18:50;;;;;;;20.67;8.82;;;;;;;9.17;92.10;102592.16;5134712;27;20019;-42
2022/07/17 02:21:16;;;;;;;18.60;8.88;;;;;;;9.22;92.37;102593.34;5134544;27;20019;-45
2022/07/17 02:23:41;;;;;;;18.10;8.25;;;;;;;9.14;92.03;102586.84;5133903;27;20026;-42
2022/07/17 02:26:06;;;;;;;15.80;7.90;;;;;;;9.05;91.05;102584.56;5134245;27;20105;-42
2022/07/17 02:28:31;;;;;;;13.43;7.85;;;;;;;8.97;90.64;102592.56;5134564;27;20015;-43
2022/07/17 02:30:57;;;;;;;17.98;8.32;;;;;;;8.99;90.54;102588.44;5133816;27;20031;-42
2022/07/17 02:33:22;;;;;;;18.65;8.35;;;;;;;8.95;90.80;102582.19;5134384;27;20027;-43
2022/07/17 02:35:47;;;;;;;16.77;8.57;;;;;;;8.90;91.15;102596.44;5134068;27;20023;-43
2022/07/17 02:38:13;;;;;;;14.85;8.00;;;;;;;8.75;90.71;102593.75;5133720;27;20029;-43
2022/07/17 02:40:38;;;;;;;15.07;8.93;;;;;;;8.77;91.51;102592.19;5134230;27;20027;-45
2022/07/17 02:43:03;;;;;;;14.23;8.13;;;;;;;8.63;90.88;102585.25;5133601;27;20480;-41
2022/07/17 02:45:29;;;;;;;13.80;7.80;;;;;;;8.48;90.87;102575.75;5134219;27;20015;-41
2022/07/17 02:47:54;;;;;;;13.52;8.15;;;;;;;8.45;91.94;102572.94;5134199;27;20059;-41
2022/07/17 02:50:20;;;;;;;13.23;7.88;;;;;;;8.43;92.30;102571.03;5133270;27;20027;-43
2022/07/17 02:52:46;;;;;;;16.20;9.43;;;;;;;8.37;93.19;102569.84;5134162;27;20024;-45
2022/07/17 02:55:12;;;;;;;18.02;9.27;;;;;;;8.34;93.77;102573.88;5133915;27;20068;-43
2022/07/17 02:57:38;;;;;;;19.73;10.07;;;;;;;8.30;93.51;102571.91;5133579;27;20026;-43
2022/07/17 03:00:09;;;;;;;20.20;10.10;;;;;;;8.27;94.27;102576.84;5133981;27;20067;-44
2022/07/17 03:02:34;;;;;;;20.33;10.48;;;;;;;8.29;94.68;102585.53;5134192;27;20110;-43
2022/07/17 03:04:59;;;;;;;16.02;9.57;;;;;;;8.22;94.65;102587.72;5133039;27;20105;-42
2022/07/17 03:07:25;;;;;;;17.77;10.05;;;;;;;8.19;94.05;102592.63;5133858;27;20027;-43
2022/07/17 03:09:50;;;;;;;17.45;9.57;;;;;;;8.16;94.18;102583.81;5133498;27;20082;-43
2022/07/17 03:12:16;;;;;;;16.08;9.32;;;;;;;8.08;94.13;102593.56;5133176;27;20458;-43
2022/07/17 03:14:41;;;;;;;18.20;10.15;;;;;;;8.13;94.88;102599.91;5133989;27;20428;-41
2022/07/17 03:17:06;;;;;;;15.77;8.93;;;;;;;8.18;94.67;102598.53;5133484;27;20129;-44
2022/07/17 03:19:31;;;;;;;15.82;8.93;;;;;;;8.10;94.77;102599.72;5133046;28;20027;-42
2022/07/17 03:21:57;;;;;;;17.02;9.25;;;;;;;8.10;94.17;102602.28;5133511;27;20029;-42
2022/07/17 03:24:22;;;;;;;18.13;10.18;;;;;;;8.18;95.41;102593.41;5133422;28;20102;-43
2022/07/17 03:26:47;;;;;;;17.60;9.80;;;;;;;8.24;95.20;102596.41;5133101;28;20031;-42
2022/07/17 03:29:16;;;;;;;13.82;8.95;;;;;;;8.21;94.18;102593.63;5133682;28;20027;-42
2022/07/17 03:31:42;;;;;;;16.75;9.43;;;;;;;8.07;93.81;102587.56;5133600;28;20019;-45
2022/07/17 03:34:08;;;;;;;15.32;8.63;;;;;;;8.05;93.43;102601.97;5132836;28;20101;-44
2022/07/17 03:36:33;;;;;;;16.48;10.18;;;;;;;8.08;94.65;102596.13;5133576;28;20030;-47
2022/07/17 03:38:58;;;;;;;21.83;9.90;;;;;;;8.08;94.69;102580.72;5133225;28;20538;-43
2022/07/17 03:41:24;;;;;;;18.92;9.80;;;;;;;8.11;94.38;102593.81;5133083;28;20447;-41
2022/07/17 03:43:49;;;;;;;18.60;10.05;;;;;;;8.07;94.42;102586.69;5133518;28;20584;-42
2022/07/17 03:46:14;;;;;;;18.73;9.80;;;;;;;8.08;94.58;102591.00;5133222;28;20016;-44
2022/07/17 03:48:39;;;;;;;18.52;9.93;;;;;;;8.04;94.89;102583.88;5133060;28;20023;-42
2022/07/17 03:51:05;;;;;;;16.58;9.00;;;;;;;8.11;95.44;102587.75;5133247;28;20039;-43
2022/07/17 03:53:30;;;;;;;16.90;8.60;;;;;;;8.15;95.26;102585.50;5132717;28;20436;-42
2022/07/17 03:55:55;;;;;;;13.25;9.60;;;;;;;8.19;95.32;102582.34;5133588;28;20023;-42
2022/07/17 03:58:21;;;;;;;21.35;9.93;;;;;;;8.18;96.32;102587.41;5133457;28;20524;-41
2022/07/17 04:00:46;;;;;;;15.35;7.18;;;;;;;8.08;95.58;102594.47;5132568;28;20034;-44
2022/07/17 04:03:11;;;;;;;16.42;9.43;;;;;;;8.02;95.35;102596.63;5133162;28;20467;-43
2022/07/17 04:05:36;;;;;;;16.20;9.23;;;;;;;7.97;95.50;102599.69;5133367;28;20030;-43
2022/07/17 04:08:02;;;;;;;18.30;9.93;;;;;;;7.97;95.73;102607.38;5132339;28;20046;-46
2022/07/17 04:10:27;;;;;;;18.23;9.65;;;;;;;7.93;96.18;102605.38;5133187;28;20024;-44
2022/07/17 04:12:52;;;;;;;20.05;10.32;;;;;;;7.93;96.33;102606.28;5133459;28;20030;-44
2022/07/17 04:15:49;;;;;;;14.75;8.90;;;;;;;7.93;95.82;102605.38;5132472;28;20034;-43
2022/07/17 04:18:03;;;;;;;16.23;9.55;;;;;;;7.83;95.53;102609.88;5132842;28;20092;-42
2022/07/17 04:20:28;;;;;;;18.10;9.82;;;;;;;7.86;95.17;102610.09;5133025;28;20015;-42
2022/07/17 04:22:54;;;;;;;18.15;9.82;;;;;;;7.93;95.49;102605.38;5132268;28;20031;-44
2022/07/17 04:25:19;;;;;;;16.85;9.43;;;;;;;7.91;96.02;102616.44;5133149;28;20072;-42
2022/07/17 04:27:45;;;;;;;18.80;10.90;;;;;;;8.11;97.34;102614.34;5133006;28;20031;-42
2022/07/17 04:30:10;;;;;;;17.30;9.98;;;;;;;8.02;96.86;102619.72;5132341;28;20023;-41
2022/07/17 04:32:35;;;;;;;17.45;10.77;;;;;;;8.17;97.71;102612.19;5133632;27;20164;-43
2022/07/17 04:35:00;;;;;;;20.60;11.30;;;;;;;8.24;97.49;102611.81;5136378;27;20106;-42
2022/07/17 04:37:26;;;;;;;16.55;10.32;;;;;;;8.37;97.82;102602.38;5136006;27;20023;-42
2022/07/17 04:39:51;;;;;;;20.17;10.25;;;;;;;8.48;97.88;102610.81;5136838;27;20356;-42
2022/07/17 04:42:16;;;;;;;19.20;11.07;;;;;;;8.46;97.70;102603.00;5136397;27;20031;-44
2022/07/17 04:44:42;;;;;;;18.42;10.35;;;;;;;8.46;97.62;102614.97;5136013;27;20450;-43
2022/07/17 04:47:07;;;;;;;20.70;11.43;;;;;;;8.52;97.88;102616.28;5136368;27;20037;-42
2022/07/17 04:49:32;;;;;;;23.67;12.70;;;;;;;8.57;98.73;102609.75;5136172;27;20035;-42
2022/07/17 04:51:57;;;;;;;20.80;12.10;;;;;;;8.68;99.33;102615.59;5135767;27;20519;-41
2022/07/17 04:54:23;;;;;;;23.88;13.95;;;;;;;8.80;100.00;102618.06;5136449;27;20023;-41
2022/07/17 04:56:48;;;;;;;22.80;14.18;;;;;;;8.90;100.00;102623.03;5135788;27;20048;-43
2022/07/17 04:59:13;;;;;;;29.17;14.48;;;;;;;9.02;100.00;102634.91;5136162;27;20027;-42
2022/07/17 05:01:39;;;;;;;22.08;13.80;;;;;;;9.12;100.00;102631.25;5136353;27;20042;-43
2022/07/17 05:04:04;;;;;;;28.38;14.07;;;;;;;9.26;100.00;102627.88;5135250;27;20030;-42
2022/07/17 05:06:30;;;;;;;24.50;13.48;;;;;;;9.38;100.00;102625.19;5136057;27;20030;-42
2022/07/17 05:08:55;;;;;;;25.52;13.73;;;;;;;9.53;100.00;102623.56;5135719;27;20039;-41
2022/07/17 05:11:20;;;;;;;34.42;14.40;;;;;;;9.65;100.00;102626.00;5135288;27;20462;-43
2022/07/17 05:13:46;;;;;;;27.75;13.10;;;;;;;9.77;100.00;102619.84;5136070;27;20075;-43
2022/07/17 05:16:11;;;;;;;25.40;12.82;;;;;;;9.89;99.73;102621.50;5135794;27;20378;-45
2022/07/17 05:18:36;;;;;;;27.02;13.60;;;;;;;9.93;99.42;102617.41;5135156;27;20071;-42
2022/07/17 05:21:02;;;;;;;24.98;13.32;;;;;;;10.08;98.84;102622.59;5135737;27;20038;-42
2022/07/17 05:23:27;;;;;;;28.10;13.88;;;;;;;10.13;99.26;102636.63;5136029;27;20098;-43
2022/07/17 05:25:52;;;;;;;22.70;13.18;;;;;;;10.25;99.32;102630.44;5134928;27;20103;-43
2022/07/17 05:28:18;;;;;;;40.58;13.90;;;;;;;10.37;99.01;102615.75;5135686;27;20481;-44
2022/07/17 05:30:43;;;;;;;22.60;14.02;;;;;;;10.47;99.27;102612.91;5135642;27;20027;-41
2022/07/17 05:33:08;;;;;;;25.77;13.60;;;;;;;10.56;98.73;102624.56;5134688;27;20038;-43
2022/07/17 05:35:34;;;;;;;27.70;14.05;;;;;;;10.67;98.67;102626.06;5135540;27;20019;-42
2022/07/17 05:37:59;;;;;;;27.50;14.52;;;;;;;10.82;97.43;102616.63;5135161;27;20023;-42
2022/07/17 05:40:25;;;;;;;26.95;14.68;;;;;;;10.89;97.30;102617.00;5134932;27;20024;-43
2022/07/17 05:42:51;;;;;;;26.70;14.45;;;;;;;11.00;97.13;102621.94;5135338;27;20106;-44
2022/07/17 05:45:16;;;;;;;24.48;14.73;;;;;;;11.14;96.76;102622.72;5134994;27;20015;-43
2022/07/17 05:47:42;;;;;;;26.90;14.07;;;;;;;11.20;96.57;102614.44;5134727;27;20103;-40
2022/07/17 05:50:07;;;;;;;24.50;14.25;;;;;;;11.30;97.05;102613.25;5134984;27;20084;-41
2022/07/17 05:52:32;;;;;;;33.65;15.75;;;;;;;11.45;96.53;102621.84;5134964;27;20030;-42
2022/07/17 05:54:57;;;;;;;23.60;14.32;;;;;;;11.50;95.78;102620.41;5134842;27;20042;-42
2022/07/17 05:57:23;;;;;;;28.08;14.50;;;;;;;11.58;95.20;102618.22;5134985;27;20065;-44
2022/07/17 05:59:48;;;;;;;29.15;14.32;;;;;;;11.72;95.59;102606.03;5134908;27;20531;-42
2022/07/17 06:02:13;;;;;;;28.70;12.60;;;;;;;11.84;92.76;102609.28;5134305;27;20114;-42
2022/07/17 06:04:39;;;;;;;23.92;12.05;;;;;;;11.96;92.25;102613.34;5134979;27;20031;-42
2022/07/17 06:07:04;;;;;;;21.70;11.23;;;;;;;12.12;90.81;102608.19;5133865;27;20102;-42
2022/07/17 06:09:29;;;;;;;23.20;11.48;;;;;;;12.22;90.00;102601.75;5134632;27;20375;-44
2022/07/17 06:11:54;;;;;;;21.02;10.00;;;;;;;12.38;88.91;102606.00;5134817;27;20070;-45
2022/07/17 06:14:20;;;;;;;19.15;9.05;;;;;;;12.48;88.75;102597.91;5134024;27;20029;-43
2022/07/17 06:16:45;;;;;;;21.20;9.95;;;;;;;12.58;87.39;102588.91;5134923;27;20027;-43
2022/07/17 06:19:10;;;;;;;17.95;9.15;;;;;;;12.76;86.53;102588.91;5134407;27;20031;-42
2022/07/17 06:21:35;;;;;;;21.85;8.70;;;;;;;12.88;84.96;102592.91;5133930;27;20536;-43
2022/07/17 06:24:01;;;;;;;23.73;8.73;;;;;;;13.01;82.69;102598.75;5134703;27;20030;-42
2022/07/17 06:26:26;;;;;;;24.65;8.95;;;;;;;13.13;84.92;102611.41;5134640;27;20499;-42
2022/07/17 06:28:51;;;;;;;18.75;8.50;;;;;;;13.25;83.22;102612.78;5133720;27;20016;-44
2022/07/17 06:31:17;;;;;;;21.90;9.00;;;;;;;13.31;82.75;102616.56;5134381;27;20015;-43
2022/07/17 06:33:42;;;;;;;23.67;9.77;;;;;;;13.40;82.55;102623.91;5134437;27;20431;-41
2022/07/17 06:36:08;;;;;;;21.08;9.40;;;;;;;13.50;81.58;102626.09;5133338;27;20031;-44
2022/07/17 06:38:34;;;;;;;17.92;8.77;;;;;;;13.61;80.30;102615.34;5134365;27;20023;-43
2022/07/17 06:41:00;;;;;;;21.55;9.05;;;;;;;13.69;80.66;102616.56;5134144;27;20015;-42
2022/07/17 06:43:25;;;;;;;18.60;9.20;;;;;;;13.78;81.23;102624.75;5133693;27;20030;-42
2022/07/17 06:45:53;;;;;;;23.38;9.48;;;;;;;13.85;79.25;102635.41;5134187;27;20027;-42
2022/07/17 06:48:19;;;;;;;26.83;10.38;;;;;;;13.91;79.64;102633.97;5133843;27;20038;-42
2022/07/17 06:50:45;;;;;;;18.85;9.77;;;;;;;14.02;81.09;102639.66;5133403;27;20023;-42
2022/07/17 06:53:10;;;;;;;18.95;10.07;;;;;;;14.06;80.38;102654.50;5134037;27;20029;-43
2022/07/17 06:55:36;;;;;;;23.70;9.93;;;;;;;14.10;79.20;102639.94;5133258;27;20023;-42
2022/07/17 06:58:01;;;;;;;20.95;8.40;;;;;;;14.22;76.36;102644.81;5133495;27;20079;-42
2022/07/17 07:00:26;;;;;;;17.15;8.85;;;;;;;14.28;79.12;102642.44;5133877;27;20036;-42
2022/07/17 07:02:52;;;;;;;24.75;9.93;;;;;;;14.39;79.19;102651.59;5133594;27;20370;-43
2022/07/17 07:05:17;;;;;;;18.70;8.43;;;;;;;14.42;77.26;102651.75;5133115;27;20053;-42
2022/07/17 07:07:42;;;;;;;15.57;8.90;;;;;;;14.52;77.83;102652.13;5134119;27;20048;-42
2022/07/17 07:10:08;;;;;;;19.65;9.63;;;;;;;14.62;78.02;102657.75;5133118;27;20394;-42
2022/07/17 07:12:33;;;;;;;17.85;9.13;;;;;;;14.74;77.22;102662.59;5133327;27;20042;-42
2022/07/17 07:14:58;;;;;;;21.55;8.10;;;;;;;14.86;75.04;102671.72;5133738;27;20023;-44
2022/07/17 07:17:23;;;;;;;22.15;8.63;;;;;;;14.93;74.72;102671.16;5133038;27;20071;-43
2022/07/17 07:19:49;;;;;;;18.10;8.15;;;;;;;14.99;71.75;102666.22;5133656;28;20019;-43
2022/07/17 07:22:14;;;;;;;17.58;7.10;;;;;;;15.14;71.20;102661.66;5133836;28;20027;-43
2022/07/17 07:24:39;;;;;;;16.42;7.55;;;;;;;15.27;72.58;102667.31;5133012;28;20394;-41
2022/07/17 07:27:05;;;;;;;17.60;7.40;;;;;;;15.41;71.81;102660.94;5133601;28;20060;-42
2022/07/17 07:29:30;;;;;;;19.10;7.38;;;;;;;15.56;70.92;102658.06;5134010;28;20019;-43
2022/07/17 07:31:55;;;;;;;18.73;7.80;;;;;;;15.58;69.02;102652.91;5132699;28;20019;-43
2022/07/17 07:34:21;;;;;;;19.90;8.23;;;;;;;15.58;68.88;102659.00;5133364;28;20031;-43
2022/07/17 07:36:46;;;;;;;19.95;6.82;;;;;;;15.67;69.68;102658.44;5133925;28;20083;-43
2022/07/17 07:39:11;;;;;;;21.48;6.95;;;;;;;15.86;70.95;102648.78;5132667;28;20031;-42
2022/07/17 07:41:36;;;;;;;20.70;7.22;;;;;;;15.93;69.67;102656.88;5133735;28;20462;-45
2022/07/17 07:44:02;;;;;;;18.58;7.05;;;;;;;16.03;69.47;102646.78;5133572;28;20023;-43
2022/07/17 07:46:27;;;;;;;18.67;6.85;;;;;;;16.10;68.86;102653.97;5132719;28;20023;-46
2022/07/17 07:48:52;;;;;;;19.73;6.50;;;;;;;16.17;66.68;102653.34;5133235;28;20076;-42
2022/07/17 07:51:17;;;;;;;22.25;6.88;;;;;;;16.30;67.05;102662.47;5132998;28;20027;-42
2022/07/17 07:53:43;;;;;;;16.65;5.80;;;;;;;16.48;68.50;102661.34;5133070;28;20027;-43
2022/07/17 07:56:08;;;;;;;12.88;5.13;;;;;;;16.59;65.79;102659.97;5133297;28;20023;-43
2022/07/17 07:58:33;;;;;;;14.73;5.60;;;;;;;16.68;64.05;102664.63;5133319;28;20039;-43
2022/07/17 08:00:58;;;;;;;19.08;5.60;;;;;;;16.72;63.53;102664.78;5132772;28;20038;-43
2022/07/17 08:03:24;;;;;;;15.95;6.05;;;;;;;16.88;64.26;102673.09;5133215;28;20023;-43
2022/07/17 08:05:49;;;;;;;14.75;5.78;;;;;;;16.99;63.56;102668.25;5132975;28;20023;-43
2022/07/17 08:08:14;;;;;;;17.70;5.57;;;;;;;17.13;62.98;102673.91;5134157;27;20535;-43
2022/07/17 08:10:39;;;;;;;14.15;5.55;;;;;;;17.31;62.96;102669.28;5137403;27;20027;-45
2022/07/17 08:13:05;;;;;;;19.27;5.35;;;;;;;17.51;63.09;102672.50;5136712;27;20019;-43
2022/07/17 08:15:30;;;;;;;14.88;5.70;;;;;;;17.55;61.69;102666.53;5136646;27;20030;-43
2022/07/17 08:17:56;;;;;;;12.20;5.00;;;;;;;17.71;61.34;102675.69;5136974;27;20026;-44
2022/07/17 08:20:21;;;;;;;14.75;6.47;;;;;;;17.84;63.68;102668.22;5136693;27;20458;-43
2022/07/17 08:22:48;;;;;;;19.55;7.10;;;;;;;17.91;62.91;102675.41;5136786;27;20059;-45
2022/07/17 08:25:14;;;;;;;26.02;6.93;;;;;;;17.98;62.75;102674.75;5137004;27;20016;-44
2022/07/17 08:27:42;;;;;;;14.65;6.63;;;;;;;18.02;61.45;102670.50;5136806;27;20048;-43
2022/07/17 08:30:10;;;;;;;14.45;5.53;;;;;;;18.12;60.02;102671.66;5136643;27;20027;-46
2022/07/17 08:32:36;;;;;;;14.35;5.75;;;;;;;18.22;60.92;102673.69;5136629;27;20385;-43
2022/07/17 08:35:01;;;;;;;12.95;4.85;;;;;;;18.29;59.24;102672.09;5135880;27;20019;-42
2022/07/17 08:37:27;;;;;;;11.98;5.07;;;;;;;18.32;59.11;102669.56;5136733;27;20034;-43
2022/07/17 08:39:52;;;;;;;12.80;4.57;;;;;;;18.36;59.60;102667.09;5136692;27;20359;-44
2022/07/17 08:42:17;;;;;;;16.13;4.60;;;;;;;18.53;60.51;102667.53;5135764;27;20106;-47
2022/07/17 08:44:44;;;;;;;18.40;4.38;;;;;;;18.64;59.46;102667.78;5136651;27;20099;-43
2022/07/17 08:47:11;;;;;;;13.98;4.60;;;;;;;18.72;57.55;102671.50;5136193;27;20022;-43
2022/07/17 08:49:44;;;;;;;13.77;3.88;;;;;;;18.73;55.93;102667.13;5135666;27;20081;-43
2022/07/17 08:52:13;;;;;;;13.82;4.50;;;;;;;18.86;57.56;102665.72;5136475;27;20019;-43
2022/07/17 08:54:39;;;;;;;11.45;4.10;;;;;;;18.90;54.84;102668.47;5136353;27;20056;-43
2022/07/17 08:57:04;;;;;;;18.38;3.83;;;;;;;18.97;55.41;102666.91;5135603;27;20032;-43
2022/07/17 08:59:30;;;;;;;10.68;3.88;;;;;;;19.16;53.13;102667.31;5136314;27;20049;-44
2022/07/17 09:01:55;;;;;;;9.70;3.83;;;;;;;19.29;54.97;102653.69;5135919;27;20030;-46
2022/07/17 09:04:21;;;;;;;16.65;4.10;;;;;;;19.49;55.94;102659.34;5135768;27;20023;-44
2022/07/17 09:06:57;;;;;;;13.07;4.05;;;;;;;19.62;54.94;102663.09;5136329;27;20099;-43
2022/07/17 09:09:22;;;;;;;15.32;4.57;;;;;;;19.61;52.77;102666.56;5135480;27;20074;-44
2022/07/17 09:11:52;;;;;;;14.15;4.60;;;;;;;19.82;54.84;102660.03;5135579;27;20073;-42
2022/07/17 09:14:19;;;;;;;11.70;3.42;;;;;;;19.95;51.89;102667.31;5135839;27;20466;-43
2022/07/17 09:16:53;;;;;;;14.27;4.35;;;;;;;20.07;50.74;102662.28;5135736;27;20026;-44
2022/07/17 09:19:29;;;;;;;17.15;5.03;;;;;;;20.16;52.58;102658.97;5134923;27;20482;-43
2022/07/17 09:22:14;;;;;;;14.05;4.95;;;;;;;20.34;53.37;102658.41;5135912;27;20057;-43
2022/07/17 09:24:46;;;;;;;10.23;4.50;;;;;;;20.43;52.27;102665.56;5134971;27;20030;-44
2022/07/17 09:27:13;;;;;;;15.43;4.40;;;;;;;20.58;52.07;102662.34;5135710;27;20015;-45
2022/07/17 09:30:00;;;;;;;11.82;4.13;;;;;;;20.59;51.02;102666.69;5135597;27;20038;-43
2022/07/17 09:32:28;;;;;;;11.60;5.03;;;;;;;20.63;49.97;102662.41;5135121;27;20033;-44
2022/07/17 09:34:56;;;;;;;14.38;4.85;;;;;;;20.78;50.68;102656.56;5135517;27;20039;-43
2022/07/17 09:37:23;;;;;;;14.70;4.63;;;;;;;20.97;50.95;102640.28;5135228;27;20058;-43
2022/07/17 09:39:49;;;;;;;;;;;;;;;21.15;51.83;102641.38;5135579;27;20036;-44
2022/07/17 09:42:32;;;;;;;12.95;4.30;;;;;;;21.28;51.31;102640.72;5135287;27;19915;-44
2022/07/17 09:45:05;;;;;;;12.35;4.00;;;;;;;21.59;51.21;102641.13;5135210;27;20035;-43
2022/07/17 09:47:33;;;;;;;10.63;4.43;;;;;;;21.81;47.97;102647.50;5135501;27;20027;-44
2022/07/17 09:49:59;;;;;;;9.57;3.53;;;;;;;22.15;46.53;102655.75;5135155;27;20031;-43
2022/07/17 09:52:30;;;;;;;13.93;4.10;;;;;;;22.02;44.15;102652.13;5134297;27;20593;-43
2022/07/17 09:54:56;;;;;;;11.60;3.70;;;;;;;22.34;42.97;102650.69;5135263;27;20272;-44
2022/07/17 09:57:29;;;;;;;9.98;3.83;;;;;;;22.71;43.11;102650.16;5135079;27;20394;-44
2022/07/17 09:59:58;;;;;;;8.55;3.45;;;;;;;22.93;40.68;102652.06;5134461;27;20439;-43
2022/07/17 10:02:24;;;;;;;10.85;3.40;;;;;;;22.81;39.00;102654.59;5134839;27;20026;-43
2022/07/17 10:04:51;;;;;;;10.57;3.23;;;;;;;23.19;38.23;102654.03;5134908;27;20072;-44
2022/07/17 10:07:17;;;;;;;14.85;3.35;;;;;;;23.58;40.16;102655.06;5134350;27;20019;-44
2022/07/17 10:09:43;;;;;;;10.25;3.20;;;;;;;23.77;40.28;102656.03;5134813;27;20043;-43
2022/07/17 10:12:08;;;;;;;8.18;3.20;;;;;;;24.35;41.20;102659.69;5134425;27;20110;-43
2022/07/17 10:14:40;;;;;;;12.40;3.10;;;;;;;24.38;37.87;102656.19;5134447;27;20022;-43
2022/07/17 10:17:13;;;;;;;14.77;3.22;;;;;;;25.30;39.56;102665.75;5134791;27;20102;-43
2022/07/17 10:19:50;;;;;;;12.43;3.15;;;;;;;25.90;37.94;102660.22;5134648;27;20011;-43
2022/07/17 10:22:16;;;;;;;7.75;2.60;;;;;;;26.59;33.39;102658.88;5134044;27;20076;-45
2022/07/17 10:24:50;;;;;;;6.22;2.67;;;;;;;26.75;34.09;102653.47;5134621;27;20060;-43
2022/07/17 10:27:27;;;;;;;10.15;2.72;;;;;;;26.56;33.55;102653.63;5133692;27;20015;-44
2022/07/17 10:30:01;;;;;;;9.13;2.55;;;;;;;27.46;32.60;102655.34;5134418;27;20030;-45
2022/07/17 10:32:27;;;;;;;10.05;2.90;;;;;;;28.27;30.57;102654.25;5134000;27;20080;-45
2022/07/17 10:34:59;;;;;;;9.00;3.10;;;;;;;28.78;30.81;102656.94;5133734;27;20027;-44
2022/07/17 10:37:36;;;;;;;8.45;2.20;;;;;;;28.91;28.66;102645.16;5134366;27;20034;-46
2022/07/17 10:40:16;;;;;;;12.25;2.45;;;;;;;29.01;29.06;102653.84;5134093;27;20027;-45
2022/07/17 10:42:52;;;;;;;9.18;2.30;;;;;;;29.59;29.44;102652.69;5134080;27;20054;-44
2022/07/17 10:45:18;;;;;;;12.70;2.80;;;;;;;29.93;26.62;102659.91;5134268;27;20038;-43
2022/07/17 10:47:44;;;;;;;9.40;2.65;;;;;;;29.94;25.22;102659.00;5134000;27;20366;-49
2022/07/17 10:50:11;;;;;;;7.20;2.47;;;;;;;30.19;26.14;102660.16;5133290;27;20031;-43
2022/07/17 10:52:37;;;;;;;6.47;2.40;;;;;;;30.76;25.86;102655.19;5134300;27;20419;-44
2022/07/17 10:55:04;;;;;;;14.00;2.85;;;;;;;31.15;26.03;102647.03;5134013;27;20030;-44
2022/07/17 10:57:31;;;;;;;9.38;2.72;;;;;;;30.83;24.75;102645.25;5133767;27;20026;-44
2022/07/17 10:59:56;;;;;;;10.30;2.47;;;;;;;31.02;26.60;102650.94;5134079;27;20047;-43
2022/07/17 11:02:29;;;;;;;10.50;2.55;;;;;;;31.35;26.70;102649.13;5133687;27;20059;-45
2022/07/17 11:05:04;;;;;;;8.60;2.83;;;;;;;31.45;24.69;102648.84;5133833;27;20035;-45
2022/07/17 11:07:29;;;;;;;9.25;2.42;;;;;;;31.54;24.84;102643.22;5134217;27;20056;-47
2022/07/17 11:09:55;;;;;;;9.03;3.10;;;;;;;32.53;23.73;102645.41;5132719;27;20046;-46
2022/07/17 11:12:32;;;;;;;8.20;2.50;;;;;;;32.59;24.60;102650.53;5133861;27;20470;-46
2022/07/17 11:15:03;;;;;;;7.57;2.33;;;;;;;31.76;24.01;102648.78;5115227;28;20023;-44